Time;durP1;ratioP1;P1;durP2;ratioP2;P2;SDS_P1;SDS_P2;PMS_P1;PMS_P2;Temp;Humidity;BMP_temperature;BMP_pressure;BME280_temperature;BME280_humidity;BME280_pressure;Samples;Min_cycle;Max_cycle;Signal;HPM_P1;HPM_P2
2023/09/11 00:03:58;;;;;;;;;;;22.30;40.30;;;21.99;39.62;101196.03;12258441;19;19935;-86
2023/09/11 00:08:00;;;;;;;;;;;22.30;40.30;;;21.96;39.58;101193.69;12254290;19;19919;-86
2023/09/11 00:12:01;;;;;;;;;;;22.30;40.40;;;21.69;39.53;101151.13;12256412;19;19933;-85
2023/09/11 00:16:03;;;;;;;;;;;22.30;40.40;;;21.83;39.82;101174.56;12257546;19;19919;-85
2023/09/11 00:20:10;;;;;;;;;;;22.20;40.40;;;21.85;39.96;101183.25;12253688;19;19919;-86
2023/09/11 00:24:11;;;;;;;;;;;22.20;40.40;;;21.80;39.72;101178.34;12257739;19;19927;-86
2023/09/11 00:28:13;;;;;;;;;;;22.20;40.50;;;21.79;39.79;101174.03;12246076;19;20321;-86
2023/09/11 00:32:15;;;;;;;;;;;22.20;40.50;;;21.76;39.87;101176.13;12255541;19;19910;-86
2023/09/11 00:36:16;;;;;;;;;;;22.10;40.50;;;21.64;40.24;101159.53;12254207;19;19926;-86
2023/09/11 00:40:18;;;;;;;;;;;22.10;40.50;;;21.56;40.12;101146.16;12244310;19;20321;-86
2023/09/11 00:44:20;;;;;;;;;;;22.00;40.50;;;21.63;40.00;101163.19;12255894;19;19985;-85
2023/09/11 00:48:22;;;;;;;;;;;22.00;40.50;;;21.46;39.93;101153.31;12252490;19;20258;-86
2023/09/11 00:52:25;;;;;;;;;;;22.00;40.60;;;21.49;40.10;101167.13;12251577;19;19936;-86
2023/09/11 00:56:26;;;;;;;;;;;21.90;40.50;;;21.32;40.11;101143.94;12248284;19;19922;-86
2023/09/11 01:00:28;;;;;;;;;;;21.90;40.60;;;21.33;40.15;101156.25;12251433;19;19970;-85
2023/09/11 01:04:30;;;;;;;;;;;21.80;40.60;;;21.32;40.47;101163.38;12253261;19;19922;-85
2023/09/11 01:08:32;;;;;;;;;;;21.80;40.70;;;21.20;40.64;101146.78;12246300;19;19927;-85
2023/09/11 01:12:37;;;;;;;;;;;21.70;40.70;;;20.99;40.32;101127.53;12253156;19;19923;-85
2023/09/11 01:16:51;;;;;;;;;;;21.60;40.70;;;21.18;40.74;101156.72;12249225;19;19923;-86
2023/09/11 01:21:30;;;;;;;;;;;21.50;41.10;;;21.10;40.34;101151.28;12248927;19;19927;-85
2023/09/11 01:25:50;;;;;;;;;;;21.50;40.80;;;21.04;40.72;101156.34;12249747;19;20329;-85
2023/09/11 01:29:52;;;;;;;;;;;21.40;40.80;;;20.83;40.48;101122.81;12248295;19;19923;-86
2023/09/11 01:33:53;;;;;;;;;;;21.40;40.90;;;20.94;40.53;101146.53;12249282;19;19930;-85
2023/09/11 01:37:55;;;;;;;;;;;21.40;41.00;;;20.74;40.67;101111.22;12249610;19;19918;-85
2023/09/11 01:42:02;;;;;;;;;;;21.30;40.90;;;20.89;40.61;101145.28;12244571;19;19919;-86
2023/09/11 01:46:04;;;;;;;;;;;21.30;41.00;;;20.75;40.84;101128.81;12250275;19;19919;-86
2023/09/11 01:50:07;;;;;;;;;;;21.30;41.00;;;20.51;40.93;101089.41;12242908;19;19942;-86
2023/09/11 01:54:09;;;;;;;;;;;21.20;41.00;;;20.59;40.87;101128.53;12243754;19;19919;-86
2023/09/11 01:58:11;;;;;;;;;;;21.20;41.00;;;20.61;40.80;101129.25;12246563;19;20241;-86
2023/09/11 02:02:13;;;;;;;;;;;21.10;40.90;;;20.51;40.95;101118.59;12251017;19;19927;-86
2023/09/11 02:06:14;;;;;;;;;;;21.00;40.90;;;20.42;41.01;101108.00;12248207;19;20003;-86
2023/09/11 02:10:18;;;;;;;;;;;21.00;41.00;;;20.38;40.76;101115.38;12249449;19;19927;-86
2023/09/11 02:14:19;;;;;;;;;;;20.90;41.00;;;20.31;40.96;101112.47;12249604;19;19930;-85
2023/09/11 02:18:20;;;;;;;;;;;20.90;41.00;;;20.36;41.07;101124.44;12247368;19;19915;-85
2023/09/11 02:22:22;;;;;;;;;;;20.90;41.10;;;20.25;40.89;101112.16;12249298;19;19923;-86
2023/09/11 02:26:24;;;;;;;;;;;20.80;41.10;;;20.26;41.23;101127.94;12249414;19;19923;-86
2023/09/11 02:30:25;;;;;;;;;;;20.80;41.20;;;20.17;40.93;101112.88;12248739;19;19915;-86
2023/09/11 02:34:26;;;;;;;;;;;20.80;41.30;;;20.19;41.19;101128.63;12250890;19;19915;-86
2023/09/11 02:38:28;;;;;;;;;;;20.70;41.30;;;19.99;41.44;101101.25;12248385;19;19933;-86
2023/09/11 02:42:29;;;;;;;;;;;20.60;41.20;;;20.03;41.51;101123.84;12249941;19;19918;-86
2023/09/11 02:46:31;;;;;;;;;;;20.60;41.30;;;19.99;41.52;101117.16;12246596;19;19915;-86
2023/09/11 02:50:33;;;;;;;;;;;20.50;41.30;;;19.99;41.22;101122.47;12245190;19;19911;-85
2023/09/11 02:54:35;;;;;;;;;;;20.40;41.30;;;19.91;41.06;101115.19;12246945;19;19911;-86
2023/09/11 02:58:36;;;;;;;;;;;20.40;41.40;;;19.89;41.37;101114.47;12243675;19;19947;-85
2023/09/11 03:02:39;;;;;;;;;;;20.40;41.40;;;19.85;41.52;101121.88;12252812;19;19915;-86
2023/09/11 03:06:41;;;;;;;;;;;20.40;41.40;;;19.88;41.33;101120.75;12256521;19;19922;-86
2023/09/11 03:10:42;;;;;;;;;;;20.40;41.50;;;19.87;41.46;101129.66;12258107;19;20258;-85
2023/09/11 03:14:44;;;;;;;;;;;20.30;41.80;;;19.68;41.59;101098.63;12258289;19;20257;-85
2023/09/11 03:18:46;;;;;;;;;;;20.40;41.50;;;19.79;41.64;101126.84;12255155;19;19923;-86
2023/09/11 03:22:49;;;;;;;;;;;20.30;41.50;;;19.71;41.81;101111.63;12257958;19;19915;-85
2023/09/11 03:26:51;;;;;;;;;;;20.30;41.50;;;19.69;41.79;101113.59;12255816;19;19918;-86
2023/09/11 03:30:53;;;;;;;;;;;20.20;41.50;;;19.45;41.78;101072.31;12257236;19;19986;-85
2023/09/11 03:34:55;;;;;;;;;;;20.20;41.50;;;19.36;41.92;101067.84;12256475;19;19926;-85
2023/09/11 03:38:56;;;;;;;;;;;20.20;41.60;;;19.61;41.84;101108.09;12252669;19;19944;-86
2023/09/11 03:42:59;;;;;;;;;;;20.20;41.60;;;19.62;41.56;101115.06;12257534;19;19926;-86
2023/09/11 03:47:01;;;;;;;;;;;20.20;41.60;;;19.63;42.06;101116.72;12255184;19;19911;-86
2023/09/11 03:51:02;;;;;;;;;;;20.20;41.60;;;19.58;41.88;101103.91;12254510;19;19922;-86
2023/09/11 03:55:04;;;;;;;;;;;20.10;41.60;;;19.29;41.76;101068.50;12255632;19;19923;-86
2023/09/11 03:59:06;;;;;;;;;;;20.10;41.60;;;19.44;42.00;101099.81;12250768;19;19974;-86
2023/09/11 04:03:08;;;;;;;;;;;20.00;41.60;;;19.44;41.86;101107.75;12256069;19;19936;-86
2023/09/11 04:07:09;;;;;;;;;;;20.00;41.60;;;19.33;41.76;101091.91;12254461;19;19936;-86
2023/09/11 04:11:11;;;;;;;;;;;19.90;41.70;;;19.36;42.12;101088.16;12255076;19;19953;-86
2023/09/11 04:15:13;;;;;;;;;;;19.90;41.70;;;19.36;41.81;101098.75;12255293;19;19986;-85
2023/09/11 04:19:15;;;;;;;;;;;19.90;41.70;;;19.36;42.19;101094.34;12251626;19;19915;-86
2023/09/11 04:23:16;;;;;;;;;;;19.90;41.80;;;19.20;42.04;101080.75;12254302;19;20278;-86
2023/09/11 04:27:19;;;;;;;;;;;19.90;41.80;;;19.24;42.13;101082.97;12253292;19;19943;-86
2023/09/11 04:31:20;;;;;;;;;;;19.90;41.80;;;18.96;42.21;101052.75;12249175;19;19927;-86
2023/09/11 04:35:23;;;;;;;;;;;19.90;41.80;;;19.05;42.24;101061.69;12252945;19;19923;-85
2023/09/11 04:39:26;;;;;;;;;;;19.90;41.90;;;19.17;42.19;101088.91;12250380;19;19922;-86
2023/09/11 04:43:28;;;;;;;;;;;19.80;41.80;;;19.12;42.17;101076.09;12252886;19;20418;-86
2023/09/11 04:47:31;;;;;;;;;;;19.80;41.90;;;19.15;42.18;101088.22;12252225;19;19918;-86
2023/09/11 04:51:34;;;;;;;;;;;19.80;41.90;;;18.97;42.33;101062.34;12252216;19;19942;-86
2023/09/11 04:55:36;;;;;;;;;;;19.70;41.80;;;19.08;42.41;101084.41;12252692;19;19918;-86
2023/09/11 04:59:38;;;;;;;;;;;19.80;41.90;;;19.10;42.52;101087.78;12249113;19;19922;-86
2023/09/11 05:03:40;;;;;;;;;;;19.70;41.90;;;19.03;42.61;101076.88;12252058;19;19918;-85
2023/09/11 05:07:42;;;;;;;;;;;19.80;42.00;;;18.78;42.26;101041.06;12249247;19;19919;-88
2023/09/11 05:11:44;;;;;;;;;;;19.70;42.00;;;19.07;42.35;101099.47;12252852;19;19915;-88
2023/09/11 05:15:48;;;;;;;;;;;19.70;42.00;;;18.91;42.32;101072.63;12251571;19;20449;-88
2023/09/11 05:19:49;;;;;;;;;;;19.70;42.00;;;18.95;42.67;101093.38;12247084;19;19926;-88
2023/09/11 05:23:51;;;;;;;;;;;19.70;42.10;;;19.00;42.75;101095.66;12250306;19;20237;-89
2023/09/11 05:27:53;;;;;;;;;;;19.60;42.10;;;18.94;42.46;101082.94;12247253;19;20246;-89
2023/09/11 05:31:54;;;;;;;;;;;19.60;42.10;;;18.91;42.68;101094.63;12251799;19;19915;-88
2023/09/11 05:35:56;;;;;;;;;;;19.60;42.30;;;18.69;42.57;101070.94;12249198;19;19929;-89
2023/09/11 05:39:58;;;;;;;;;;;19.60;42.30;;;18.74;42.54;101081.94;12247434;19;19930;-89
2023/09/11 05:44:00;;;;;;;;;;;19.60;42.40;;;18.83;42.59;101094.44;12249947;19;19922;-89
2023/09/11 05:48:01;;;;;;;;;;;19.50;42.40;;;18.78;42.72;101091.34;12241449;19;19926;-89
2023/09/11 05:52:03;;;;;;;;;;;19.50;42.50;;;18.83;42.75;101096.25;12246746;19;19918;-88
2023/09/11 05:56:05;;;;;;;;;;;19.50;42.50;;;18.62;42.79;101060.00;12239346;19;20493;-88
2023/09/11 06:00:12;;;;;;;;;;;19.50;42.60;;;18.78;43.00;101088.69;12234517;19;19996;-88
2023/09/11 06:04:13;;;;;;;;;;;19.50;42.70;;;18.91;42.89;101109.69;12239304;19;19930;-88
2023/09/11 06:08:15;;;;;;;;;;;19.60;42.90;;;18.94;43.06;101104.97;12232514;19;19928;-88
2023/09/11 06:12:16;;;;;;;;;;;19.60;43.10;;;18.89;43.29;101096.56;12228436;19;19945;-88
2023/09/11 06:16:18;;;;;;;;;;;19.70;43.20;;;19.01;43.16;101107.94;12233023;19;19919;-87
2023/09/11 06:20:21;;;;;;;;;;;19.70;43.30;;;19.10;43.26;101104.50;12229131;19;19922;-88
2023/09/11 06:24:22;;;;;;;;;;;19.80;43.50;;;19.15;43.18;101097.00;12234859;19;19922;-87
2023/09/11 06:28:24;;;;;;;;;;;19.90;43.60;;;19.22;43.16;101103.44;12230699;19;19923;-89
2023/09/11 06:32:25;;;;;;;;;;;19.90;43.70;;;19.30;43.44;101099.28;12231886;19;19990;-87
2023/09/11 06:36:27;;;;;;;;;;;20.10;44.10;;;19.31;43.48;101096.53;12243932;19;19975;-88
2023/09/11 06:40:28;;;;;;;;;;;20.10;44.10;;;19.45;43.50;101096.16;12242150;19;19923;-87
2023/09/11 06:44:30;;;;;;;;;;;20.20;44.20;;;19.58;43.36;101105.72;12244037;19;20260;-88
2023/09/11 06:48:32;;;;;;;;;;;20.30;44.20;;;19.66;43.55;101100.63;12238332;19;19955;-87
2023/09/11 06:52:38;;;;;;;;;;;20.40;44.30;;;19.75;43.65;101105.09;12232765;19;20608;-88
2023/09/11 06:56:42;;;;;;;;;;;20.50;44.60;;;19.77;43.97;101084.59;12240400;19;19925;-87
2023/09/11 07:00:43;;;;;;;;;;;20.70;44.80;;;19.95;44.08;101094.53;12238694;19;20350;-87
2023/09/11 07:04:45;;;;;;;;;;;20.80;45.00;;;19.89;44.11;101064.94;12243822;19;19923;-84
2023/09/11 07:08:47;;;;;;;;;;;20.90;45.00;;;20.17;44.24;101096.97;12231478;19;19994;-85
2023/09/11 07:12:49;;;;;;;;;;;21.00;45.20;;;20.20;44.11;101080.75;12218364;19;19926;-84
2023/09/11 07:16:50;;;;;;;;;;;21.20;45.30;;;20.36;44.25;101076.69;12233482;19;20483;-84
2023/09/11 07:20:52;;;;;;;;;;;21.30;45.60;;;20.43;44.21;101060.09;12231804;19;19919;-85
2023/09/11 07:24:53;;;;;;;;;;;21.50;45.90;;;20.72;44.29;101075.19;12225540;19;19927;-85
2023/09/11 07:29:01;;;;;;;;;;;21.60;45.80;;;20.88;44.32;101080.75;12224174;19;19915;-85
2023/09/11 07:33:03;;;;;;;;;;;21.90;46.00;;;21.15;44.47;101085.28;12234553;19;19934;-85
2023/09/11 07:37:04;;;;;;;;;;;22.00;46.10;;;21.28;44.84;101068.16;12231324;19;19986;-84
2023/09/11 07:41:05;;;;;;;;;;;22.30;46.40;;;21.65;44.90;101090.25;12237976;19;20353;-84
2023/09/11 07:45:07;;;;;;;;;;;22.60;45.90;;;21.93;44.75;101084.09;12236621;19;19911;-84
2023/09/11 07:49:08;;;;;;;;;;;22.90;46.10;;;21.91;45.07;101036.38;12242607;19;19953;-84
2023/09/11 07:53:10;;;;;;;;;;;23.20;45.90;;;22.56;45.24;101086.72;12252216;19;19925;-84
2023/09/11 07:57:12;;;;;;;;;;;23.60;45.80;;;22.87;45.49;101088.94;12252651;19;20353;-85
2023/09/11 08:01:13;;;;;;;;;;;23.90;45.80;;;23.23;45.14;101089.72;12248892;19;20027;-84
2023/09/11 08:05:15;;;;;;;;;;;24.30;45.70;;;23.48;45.15;101076.50;12247605;19;19962;-84
2023/09/11 08:09:17;;;;;;;;;;;24.70;45.60;;;23.83;45.25;101078.97;12248428;19;19923;-84
2023/09/11 08:13:18;;;;;;;;;;;25.10;45.10;;;24.00;45.19;101060.34;12251546;19;19919;-85
2023/09/11 08:17:20;;;;;;;;;;;25.30;45.10;;;24.41;45.49;101084.41;12250499;19;19990;-85
2023/09/11 08:21:21;;;;;;;;;;;25.70;44.70;;;24.60;45.53;101070.75;12245487;19;20002;-85
2023/09/11 08:25:22;;;;;;;;;;;26.00;44.50;;;24.82;45.45;101060.38;12250303;19;19923;-84
2023/09/11 08:29:24;;;;;;;;;;;26.20;44.60;;;25.23;45.54;101073.69;12246711;19;19933;-85
2023/09/11 08:33:25;;;;;;;;;;;26.60;44.40;;;25.33;45.46;101044.88;12248062;19;19930;-85
2023/09/11 08:37:27;;;;;;;;;;;26.80;44.20;;;25.75;45.14;101073.09;12246658;19;19915;-84
2023/09/11 08:41:31;;;;;;;;;;;27.10;44.20;;;26.03;45.07;101079.66;12247839;19;20365;-83
2023/09/11 08:45:32;;;;;;;;;;;27.40;44.30;;;26.23;45.17;101058.59;12248407;19;19922;-83
2023/09/11 08:49:36;;;;;;;;;;;27.70;44.20;;;26.38;45.24;101047.09;12234075;19;19999;-84
2023/09/11 08:53:38;;;;;;;;;;;27.90;44.00;;;26.77;44.95;101063.00;12239031;19;20010;-85
2023/09/11 08:57:40;;;;;;;;;;;28.20;44.00;;;27.08;45.15;101070.06;12239640;19;19941;-85
2023/09/11 09:01:43;;;;;;;;;;;28.50;43.80;;;27.34;45.03;101073.13;12242252;19;20281;-85
2023/09/11 09:05:46;;;;;;;;;;;28.80;43.70;;;27.55;44.96;101068.84;12246090;19;19915;-84
2023/09/11 09:09:47;;;;;;;;;;;29.00;43.50;;;27.81;44.65;101065.66;12239927;19;19923;-83
2023/09/11 09:13:48;;;;;;;;;;;29.30;43.20;;;28.04;44.43;101064.69;12242180;19;19933;-84
2023/09/11 09:17:50;;;;;;;;;;;29.40;42.50;;;28.23;44.59;101064.84;12240876;19;20311;-85
2023/09/11 09:22:07;;;;;;;;;;;29.60;42.90;;;28.45;44.69;101067.56;12227997;19;19915;-85
2023/09/11 09:26:12;;;;;;;;;;;29.80;42.80;;;28.65;44.45;101068.56;12219758;19;20006;-85
2023/09/11 09:30:26;;;;;;;;;;;30.00;42.30;;;28.88;44.20;101067.47;12236911;19;19950;-85
2023/09/11 09:34:28;;;;;;;;;;;30.20;42.20;;;28.83;44.33;101027.72;12239126;19;19922;-84
2023/09/11 09:38:31;;;;;;;;;;;30.30;42.20;;;29.19;43.94;101045.56;12233276;19;20341;-84
2023/09/11 09:42:42;;;;;;;;;;;30.50;42.20;;;29.38;43.94;101043.97;12235272;19;19934;-84
2023/09/11 09:46:43;;;;;;;;;;;30.70;42.30;;;29.58;43.93;101045.91;12226690;19;20973;-84
2023/09/11 09:50:59;;;;;;;;;;;30.80;41.90;;;29.65;43.64;101019.84;12243125;19;20256;-85
2023/09/11 09:55:02;;;;;;;;;;;31.00;42.00;;;29.87;43.52;101032.13;12247767;19;19911;-84
2023/09/11 09:59:04;;;;;;;;;;;31.10;41.70;;;29.84;43.45;101002.94;12238808;19;19919;-84
2023/09/11 10:03:05;;;;;;;;;;;31.30;41.80;;;30.20;43.36;101023.25;12212345;19;19979;-84
2023/09/11 10:07:07;;;;;;;;;;;31.50;41.50;;;30.36;43.08;101028.25;12219556;19;20564;-84
2023/09/11 10:11:27;;;;;;;;;;;31.60;41.60;;;30.46;43.02;101005.44;12188201;19;20604;-84
2023/09/11 10:15:30;;;;;;;;;;;31.70;41.60;;;30.65;42.98;101008.13;12223625;19;19926;-86
2023/09/11 10:19:33;;;;;;;;;;;31.90;41.40;;;30.86;42.79;101011.59;12229299;19;19986;-84
2023/09/11 10:23:34;;;;;;;;;;;32.10;40.80;;;30.98;42.80;100998.31;12238006;19;19915;-82
2023/09/11 10:27:36;;;;;;;;;;;32.20;41.00;;;31.06;42.83;100987.28;12233126;19;19911;-83
2023/09/11 10:32:09;;;;;;;;;;;32.30;41.10;;;31.17;42.46;100989.31;12231614;19;19922;-84
2023/09/11 10:36:12;;;;;;;;;;;32.40;40.90;;;31.29;42.38;100984.88;12230790;19;19926;-83
2023/09/11 10:40:15;;;;;;;;;;;32.50;40.70;;;31.36;42.05;100982.16;12232378;19;19926;-84
2023/09/11 10:44:17;;;;;;;;;;;32.60;39.10;;;31.47;41.94;100983.38;12234793;19;20329;-83
2023/09/11 10:48:31;;;;;;;;;;;32.60;39.80;;;31.60;41.75;100995.97;12235701;19;19919;-84
2023/09/11 10:52:33;;;;;;;;;;;32.70;39.50;;;31.63;41.72;100979.34;12232812;19;19922;-84
2023/09/11 10:56:35;;;;;;;;;;;32.80;39.50;;;31.75;41.35;100981.09;12235337;19;19931;-84
2023/09/11 11:00:37;;;;;;;;;;;32.80;39.00;;;31.85;41.30;100972.53;12238641;19;19933;-84
2023/09/11 11:04:39;;;;;;;;;;;32.90;39.70;;;31.89;41.18;100973.75;12237601;19;20032;-84
2023/09/11 11:08:42;;;;;;;;;;;33.00;39.40;;;31.92;41.45;100967.09;12235181;19;20002;-84
2023/09/11 11:12:44;;;;;;;;;;;33.00;39.90;;;32.06;40.94;100976.75;12227140;19;19990;-83
2023/09/11 11:17:00;;;;;;;;;;;33.00;38.60;;;31.95;40.86;100940.47;12233244;19;20190;-83
2023/09/11 11:21:02;;;;;;;;;;;33.10;39.20;;;32.17;40.87;100965.22;12230630;19;19984;-83
2023/09/11 11:25:08;;;;;;;;;;;33.10;39.00;;;32.19;40.63;100948.78;12242192;19;19982;-84
2023/09/11 11:29:10;;;;;;;;;;;33.20;39.50;;;32.29;40.67;100951.78;12243210;19;19927;-85
2023/09/11 11:33:17;;;;;;;;;;;33.30;39.80;;;32.39;40.54;100951.28;12241175;19;19918;-84
2023/09/11 11:37:20;;;;;;;;;;;33.30;39.60;;;32.48;40.34;100954.56;12240226;19;19970;-83
2023/09/11 11:41:23;;;;;;;;;;;33.30;39.30;;;32.44;40.55;100931.69;12243284;19;19939;-84
2023/09/11 11:45:25;;;;;;;;;;;33.50;39.50;;;32.55;40.08;100933.69;12243861;19;20368;-85
2023/09/11 11:49:26;;;;;;;;;;;33.50;39.00;;;32.69;40.11;100945.19;12243220;19;19926;-85
2023/09/11 11:53:30;;;;;;;;;;;33.50;37.50;;;32.73;39.90;100941.81;12241333;19;19938;-84
2023/09/11 11:57:31;;;;;;;;;;;33.60;38.60;;;32.79;39.80;100951.72;12234734;19;19942;-83
2023/09/11 12:01:36;;;;;;;;;;;33.70;39.00;;;32.81;39.72;100933.38;12234635;19;19931;-83
2023/09/11 12:05:40;;;;;;;;;;;33.70;37.90;;;32.86;39.85;100932.69;12240004;19;19943;-84
2023/09/11 12:09:42;;;;;;;;;;;33.70;38.50;;;32.87;39.87;100920.81;12235615;19;20360;-83
2023/09/11 12:13:43;;;;;;;;;;;33.80;38.50;;;32.89;39.89;100921.41;12240839;19;20288;-85
2023/09/11 12:17:46;;;;;;;;;;;33.80;38.20;;;32.94;39.24;100923.44;12237603;19;20326;-84
2023/09/11 12:21:48;;;;;;;;;;;33.80;38.80;;;33.03;39.22;100931.03;12235939;19;19943;-84
2023/09/11 12:25:51;;;;;;;;;;;33.80;38.80;;;33.08;39.23;100937.63;12241237;19;19999;-84
2023/09/11 12:29:57;;;;;;;;;;;33.80;37.70;;;33.03;39.10;100930.22;12239960;19;20341;-83
2023/09/11 12:33:59;;;;;;;;;;;33.90;38.50;;;33.10;38.87;100928.22;12238969;19;20325;-84
2023/09/11 12:38:07;;;;;;;;;;;33.90;38.30;;;33.16;38.64;100921.06;12237921;19;19942;-84
2023/09/11 12:42:09;;;;;;;;;;;34.00;38.30;;;33.19;38.91;100926.88;12239149;19;19923;-84
2023/09/11 12:46:15;;;;;;;;;;;34.00;37.60;;;33.25;39.00;100927.84;12232704;19;19929;-85
2023/09/11 12:50:16;;;;;;;;;;;34.00;37.60;;;33.22;38.50;100912.88;12232333;19;19986;-84
2023/09/11 12:54:17;;;;;;;;;;;34.10;37.60;;;33.25;38.54;100914.31;12234872;19;20351;-84
2023/09/11 12:58:20;;;;;;;;;;;34.10;37.90;;;33.31;38.43;100916.06;12237107;19;19925;-85
2023/09/11 13:02:21;;;;;;;;;;;34.00;37.40;;;33.13;38.18;100880.94;12241266;19;19990;-83
2023/09/11 13:06:22;;;;;;;;;;;34.10;36.90;;;33.33;37.87;100905.84;12247559;19;19911;-85
2023/09/11 13:10:24;;;;;;;;;;;34.00;37.60;;;33.36;38.22;100899.97;12247964;19;19951;-85
2023/09/11 13:14:25;;;;;;;;;;;34.10;37.80;;;33.31;38.28;100889.00;12246724;19;19914;-85
2023/09/11 13:18:27;;;;;;;;;;;34.10;38.00;;;33.41;37.76;100897.38;12246390;19;19914;-85
2023/09/11 13:22:28;;;;;;;;;;;34.10;38.40;;;33.41;37.82;100891.97;12244748;19;20107;-85
2023/09/11 13:26:29;;;;;;;;;;;34.10;36.90;;;33.43;37.56;100892.56;12246193;19;19926;-85
2023/09/11 13:30:32;;;;;;;;;;;34.10;37.60;;;33.44;37.70;100896.94;12223715;19;19970;-84
2023/09/11 13:34:34;;;;;;;;;;;34.20;37.20;;;33.44;37.53;100883.38;12234933;19;20325;-84
2023/09/11 13:39:12;;;;;;;;;;;34.10;37.60;;;33.44;37.77;100877.97;12182403;19;21393;-83
2023/09/11 13:43:14;;;;;;;;;;;34.10;35.40;;;33.42;37.47;100885.50;12202806;19;19922;-83
2023/09/11 13:47:15;;;;;;;;;;;34.10;37.70;;;33.43;37.54;100880.91;12223356;19;19945;-83
2023/09/11 13:51:17;;;;;;;;;;;34.00;37.40;;;33.44;37.10;100885.28;12228682;19;20334;-84
2023/09/11 13:55:18;;;;;;;;;;;34.00;37.50;;;33.45;37.30;100879.59;12228974;19;19922;-84
2023/09/11 13:59:19;;;;;;;;;;;34.00;36.60;;;33.46;37.44;100875.03;12231683;19;19923;-84
2023/09/11 14:03:21;;;;;;;;;;;34.00;37.30;;;33.45;37.08;100871.47;12231115;19;19923;-84
2023/09/11 14:07:22;;;;;;;;;;;34.00;36.60;;;33.41;36.67;100869.50;12233769;19;20391;-82
2023/09/11 14:11:24;;;;;;;;;;;34.00;35.80;;;33.39;36.88;100861.59;12234219;19;19922;-83
2023/09/11 14:15:25;;;;;;;;;;;34.00;36.60;;;33.42;36.63;100871.13;12234794;19;19930;-84
2023/09/11 14:19:28;;;;;;;;;;;34.00;36.90;;;33.38;36.76;100870.78;12231448;19;19933;-84
2023/09/11 14:23:30;;;;;;;;;;;34.00;37.20;;;33.37;36.75;100863.69;12233915;19;19927;-84
2023/09/11 14:27:32;;;;;;;;;;;33.90;36.70;;;33.37;36.67;100860.16;12233844;19;19922;-83
2023/09/11 14:31:34;;;;;;;;;;;33.90;37.00;;;33.36;36.66;100862.06;12236694;19;20001;-84
2023/09/11 14:35:38;;;;;;;;;;;33.90;37.00;;;33.20;36.54;100832.94;12235722;19;19919;-84
2023/09/11 14:39:40;;;;;;;;;;;33.80;36.90;;;33.35;36.40;100860.41;12235101;19;19938;-84
2023/09/11 14:43:44;;;;;;;;;;;33.90;36.60;;;33.26;36.34;100840.97;12238290;19;19926;-83
2023/09/11 14:47:47;;;;;;;;;;;33.80;36.60;;;33.32;36.48;100839.19;12234284;19;20000;-84
2023/09/11 14:51:49;;;;;;;;;;;33.80;36.80;;;33.31;36.30;100839.44;12239431;19;19978;-84
2023/09/11 14:55:53;;;;;;;;;;;33.80;36.80;;;33.19;36.25;100821.31;12238213;19;19933;-83
2023/09/11 14:59:55;;;;;;;;;;;33.70;36.80;;;33.08;36.39;100799.59;12247789;19;19922;-84
2023/09/11 15:03:56;;;;;;;;;;;33.70;37.00;;;33.24;36.12;100834.97;12251974;19;19924;-84
2023/09/11 15:08:00;;;;;;;;;;;33.70;36.80;;;33.19;35.96;100825.88;12247796;19;20380;-84
2023/09/11 15:12:04;;;;;;;;;;;33.70;36.70;;;33.21;36.01;100840.81;12252274;19;19931;-84
2023/09/11 15:16:05;;;;;;;;;;;33.70;37.00;;;33.19;36.41;100829.44;12248615;19;19923;-85
2023/09/11 15:20:08;;;;;;;;;;;33.70;36.80;;;33.19;36.06;100828.56;12244363;19;19919;-84
2023/09/11 15:24:09;;;;;;;;;;;33.60;36.80;;;33.14;35.95;100818.47;12250216;19;19927;-83
2023/09/11 15:28:11;;;;;;;;;;;33.60;36.80;;;32.93;35.92;100792.72;12234828;19;19978;-83
2023/09/11 15:32:13;;;;;;;;;;;33.60;36.90;;;33.13;35.66;100821.41;12252820;19;19934;-84
2023/09/11 15:36:14;;;;;;;;;;;33.60;36.60;;;33.10;35.89;100813.75;12247903;19;19934;-84
2023/09/11 15:40:16;;;;;;;;;;;33.50;36.70;;;33.11;36.07;100823.50;12242719;19;19926;-83
2023/09/11 15:44:17;;;;;;;;;;;33.50;36.80;;;33.08;36.24;100823.97;12243591;19;19919;-83
2023/09/11 15:48:19;;;;;;;;;;;33.50;36.90;;;33.04;35.79;100820.91;12243871;19;19942;-83
2023/09/11 15:52:20;;;;;;;;;;;33.50;37.10;;;33.04;35.79;100818.19;12240451;19;19915;-83
2023/09/11 15:56:22;;;;;;;;;;;33.40;37.10;;;33.02;35.84;100817.59;12243774;19;19939;-83
2023/09/11 16:00:24;;;;;;;;;;;33.40;37.30;;;32.98;36.05;100803.69;12237872;19;19968;-83
2023/09/11 16:04:26;;;;;;;;;;;33.40;37.40;;;32.95;35.84;100804.16;12244247;19;19935;-83
2023/09/11 16:08:27;;;;;;;;;;;33.30;37.50;;;32.93;36.00;100803.56;12236648;19;20001;-83
2023/09/11 16:12:28;;;;;;;;;;;33.30;37.60;;;32.88;35.80;100811.53;12241548;19;20328;-83
2023/09/11 16:16:32;;;;;;;;;;;33.30;37.70;;;32.74;35.84;100801.97;12238141;19;19915;-83
2023/09/11 16:20:35;;;;;;;;;;;33.10;37.60;;;32.72;36.13;100810.28;12234971;19;19926;-83
2023/09/11 16:24:37;;;;;;;;;;;33.10;37.60;;;32.67;35.55;100822.84;12236340;19;19918;-82
2023/09/11 16:28:38;;;;;;;;;;;33.00;37.60;;;32.57;36.08;100816.13;12239019;19;19943;-83
2023/09/11 16:32:40;;;;;;;;;;;32.90;37.60;;;32.49;35.77;100818.31;12238229;19;20006;-83
2023/09/11 16:36:42;;;;;;;;;;;32.80;37.70;;;32.28;36.04;100792.56;12238673;19;19923;-83
2023/09/11 16:40:43;;;;;;;;;;;32.70;37.70;;;32.24;35.82;100800.28;12235403;19;20311;-82
2023/09/11 16:44:45;;;;;;;;;;;32.60;37.80;;;32.08;35.96;100790.91;12236150;19;19994;-83
2023/09/11 16:48:46;;;;;;;;;;;32.50;37.80;;;32.06;35.94;100806.53;12235380;19;20264;-84
2023/09/11 16:52:47;;;;;;;;;;;32.40;37.80;;;31.93;35.85;100804.78;12240033;19;19915;-82
2023/09/11 16:56:49;;;;;;;;;;;32.30;37.80;;;31.86;35.86;100808.56;12141435;19;19930;-82
2023/09/11 17:00:50;;;;;;;;;;;32.10;37.70;;;31.67;36.12;100803.13;12116322;19;20027;-82
2023/09/11 17:04:52;;;;;;;;;;;32.00;37.80;;;31.60;35.85;100815.88;12118809;19;19923;-83
2023/09/11 17:08:54;;;;;;;;;;;31.80;37.80;;;31.51;36.22;100819.91;12128258;19;20239;-85
2023/09/11 17:12:55;;;;;;;;;;;31.70;37.80;;;31.39;35.93;100810.88;12126674;19;20869;-84
2023/09/11 17:16:57;;;;;;;;;;;31.60;37.80;;;31.27;36.17;100811.56;12130034;19;19919;-83
2023/09/11 17:21:07;;;;;;;;;;;31.50;37.90;;;31.17;36.23;100816.63;12120495;19;20639;-84
2023/09/11 17:25:08;;;;;;;;;;;31.30;37.90;;;31.07;36.30;100813.56;12121272;19;19934;-84
2023/09/11 17:29:10;;;;;;;;;;;31.20;37.90;;;30.91;36.19;100803.28;12124526;19;19927;-84
2023/09/11 17:33:11;;;;;;;;;;;31.10;37.90;;;30.82;36.37;100803.56;12125881;19;19930;-84
2023/09/11 17:37:13;;;;;;;;;;;31.00;37.90;;;30.72;36.08;100805.03;12113727;19;20306;-84
2023/09/11 17:41:14;;;;;;;;;;;31.00;38.00;;;30.57;36.04;100805.31;12119813;19;19938;-84
2023/09/11 17:45:16;;;;;;;;;;;30.80;37.90;;;30.46;36.46;100805.97;12124562;19;19922;-83
2023/09/11 17:49:17;;;;;;;;;;;30.70;38.00;;;30.40;36.48;100824.66;12121836;19;20378;-84
2023/09/11 17:53:20;;;;;;;;;;;30.60;38.10;;;30.29;36.36;100816.41;12125208;19;19919;-84
2023/09/11 17:57:21;;;;;;;;;;;30.50;38.10;;;30.15;36.62;100816.44;12121690;19;20553;-85
2023/09/11 18:01:23;;;;;;;;;;;30.40;38.20;;;29.99;36.44;100809.63;12133465;19;20451;-84
2023/09/11 18:05:24;;;;;;;;;;;30.20;38.20;;;29.94;36.66;100820.19;12131224;19;20696;-85
2023/09/11 18:09:26;;;;;;;;;;;30.10;38.20;;;29.86;36.37;100831.19;12130330;19;20623;-85
2023/09/11 18:13:27;;;;;;;;;;;30.00;38.30;;;29.73;36.47;100823.97;12123544;19;20291;-85